createdAt,value
2023-02-22T00:01:35.648Z,6.10
2023-02-22T00:04:04.711Z,7.17
2023-02-22T00:06:31.493Z,6.77
2023-02-22T00:08:59.128Z,7.13
2023-02-22T00:11:26.973Z,7.23
2023-02-22T00:13:57.435Z,6.77
2023-02-22T00:16:26.431Z,6.50
2023-02-22T00:18:54.093Z,6.57
2023-02-22T00:21:21.506Z,6.00
2023-02-22T00:23:49.291Z,6.97
2023-02-22T00:26:21.425Z,6.97
2023-02-22T00:28:53.039Z,5.90
2023-02-22T00:31:20.958Z,7.27
2023-02-22T00:33:47.960Z,6.83
2023-02-22T00:36:14.800Z,7.03
2023-02-22T00:38:42.159Z,6.70
2023-02-22T00:41:09.984Z,6.07
2023-02-22T00:43:36.827Z,6.47
2023-02-22T00:46:03.573Z,6.63
2023-02-22T00:48:30.355Z,7.63
2023-02-22T00:50:57.051Z,7.23
2023-02-22T00:53:25.221Z,6.93
2023-02-22T00:55:53.131Z,6.77
2023-02-22T00:58:20.109Z,7.07
2023-02-22T01:00:47.056Z,6.93
2023-02-22T01:03:15.728Z,7.80
2023-02-22T01:05:43.049Z,6.50
2023-02-22T01:08:12.712Z,6.73
2023-02-22T01:10:40.111Z,7.73
2023-02-22T01:13:09.489Z,6.13
2023-02-22T01:15:38.017Z,6.37
2023-02-22T01:18:05.750Z,8.23
2023-02-22T01:20:32.763Z,6.57
2023-02-22T01:23:01.505Z,7.13
2023-02-22T01:25:30.523Z,7.10
2023-02-22T01:27:58.466Z,7.20
2023-02-22T01:30:28.161Z,6.80
2023-02-22T01:32:55.304Z,6.77
2023-02-22T01:35:26.078Z,6.33
2023-02-22T01:37:52.762Z,6.97
2023-02-22T01:40:30.906Z,6.47
2023-02-22T01:43:01.052Z,6.50
2023-02-22T01:45:30.894Z,7.03
2023-02-22T01:48:17.092Z,6.87
2023-02-22T01:50:55.805Z,6.63
2023-02-22T01:53:27.112Z,7.27
2023-02-22T01:55:55.345Z,6.83
2023-02-22T01:58:23.351Z,6.43
2023-02-22T02:00:50.187Z,7.00
2023-02-22T02:03:28.264Z,6.77
2023-02-22T02:05:58.706Z,6.17
2023-02-22T02:08:36.079Z,6.47
2023-02-22T02:11:14.028Z,6.50
2023-02-22T02:13:41.603Z,6.80
2023-02-22T02:16:08.362Z,7.00
2023-02-22T02:18:35.562Z,7.20
2023-02-22T02:21:05.245Z,6.67
2023-02-22T02:24:11.956Z,7.10
2023-02-22T02:27:05.610Z,7.10
2023-02-22T02:30:00.403Z,7.67
2023-02-22T02:32:30.218Z,7.43
2023-02-22T02:35:22.218Z,7.07
2023-02-22T02:38:05.431Z,7.10
2023-02-22T02:40:44.570Z,6.23
2023-02-22T02:43:17.682Z,6.60
2023-02-22T02:45:51.886Z,6.33
2023-02-22T02:48:25.547Z,6.47
2023-02-22T02:50:56.447Z,6.67
2023-02-22T02:53:29.900Z,6.27
2023-02-22T02:55:59.639Z,6.10
2023-02-22T02:58:26.920Z,6.47
2023-02-22T03:00:59.002Z,6.40
2023-02-22T03:03:47.617Z,5.67
2023-02-22T03:07:08.842Z,6.10
2023-02-22T03:09:38.044Z,5.70
2023-02-22T03:12:11.442Z,5.60
2023-02-22T03:14:42.497Z,5.93
2023-02-22T03:18:03.008Z,5.10
2023-02-22T03:20:59.937Z,6.07
2023-02-22T03:23:35.288Z,5.87
2023-02-22T03:26:07.735Z,5.07
2023-02-22T03:28:36.940Z,5.97
2023-02-22T03:31:22.243Z,4.90
2023-02-22T03:34:11.352Z,5.80
2023-02-22T03:36:48.204Z,5.07
2023-02-22T03:39:18.567Z,5.70
2023-02-22T03:41:51.520Z,5.27
2023-02-22T03:44:22.784Z,5.67
2023-02-22T03:46:52.117Z,5.67
2023-02-22T03:49:35.006Z,5.37
2023-02-22T03:52:04.263Z,5.47
2023-02-22T03:54:32.268Z,5.60
2023-02-22T03:57:06.645Z,5.70
2023-02-22T03:59:33.781Z,4.73
2023-02-22T04:02:00.513Z,5.30
2023-02-22T04:04:27.307Z,5.47
2023-02-22T04:06:54.793Z,5.03
2023-02-22T04:09:21.487Z,5.30
2023-02-22T04:11:48.501Z,5.77
2023-02-22T04:14:15.220Z,5.00
2023-02-22T04:16:41.908Z,4.73
2023-02-22T04:19:08.610Z,4.80
2023-02-22T04:21:35.433Z,4.60
2023-02-22T04:24:02.096Z,4.33
2023-02-22T04:26:29.001Z,4.10
2023-02-22T04:28:55.811Z,4.43
2023-02-22T04:31:22.520Z,4.90
2023-02-22T04:33:49.152Z,4.43
2023-02-22T04:36:16.230Z,4.53
2023-02-22T04:38:43.676Z,4.20
2023-02-22T04:41:11.367Z,4.73
2023-02-22T04:43:38.221Z,5.27
2023-02-22T04:46:05.113Z,4.03
2023-02-22T04:48:31.896Z,4.47
2023-02-22T04:50:58.571Z,4.00
2023-02-22T04:53:25.365Z,3.70
2023-02-22T04:55:52.533Z,3.90
2023-02-22T04:58:19.345Z,4.23
2023-02-22T05:00:46.026Z,4.03
2023-02-22T05:03:12.712Z,4.30
2023-02-22T05:05:39.426Z,4.27
2023-02-22T05:08:06.149Z,4.37
2023-02-22T05:10:32.905Z,4.17
2023-02-22T05:12:59.682Z,4.10
2023-02-22T05:15:26.578Z,4.47
2023-02-22T05:17:53.569Z,3.73
2023-02-22T05:20:28.324Z,4.17
2023-02-22T05:22:56.452Z,4.33
2023-02-22T05:25:23.451Z,4.40
2023-02-22T05:27:55.039Z,4.07
2023-02-22T05:30:24.582Z,6.30
2023-02-22T05:32:51.965Z,4.00
2023-02-22T05:35:19.526Z,4.37
2023-02-22T05:37:46.796Z,4.47
2023-02-22T05:40:14.700Z,4.13
2023-02-22T05:42:41.828Z,4.50
2023-02-22T05:45:09.287Z,4.30
2023-02-22T05:47:35.949Z,4.63
2023-02-22T05:50:02.623Z,4.20
2023-02-22T05:52:29.300Z,4.57
2023-02-22T05:54:56.031Z,4.63
2023-02-22T05:57:22.673Z,4.43
2023-02-22T05:59:49.485Z,4.87
2023-02-22T06:02:16.255Z,3.93
2023-02-22T06:04:47.228Z,4.97
2023-02-22T06:07:14.803Z,5.47
2023-02-22T06:09:41.735Z,5.53
2023-02-22T06:12:08.971Z,5.87
2023-02-22T06:14:36.273Z,5.43
2023-02-22T06:17:03.230Z,5.90
2023-02-22T06:19:29.902Z,6.13
2023-02-22T06:21:59.938Z,5.13
2023-02-22T06:24:26.620Z,5.63
2023-02-22T06:26:57.993Z,5.87
2023-02-22T06:29:26.046Z,6.30
2023-02-22T06:31:52.913Z,6.00
2023-02-22T06:34:20.237Z,5.87
2023-02-22T06:36:48.296Z,4.77
2023-02-22T06:39:16.270Z,5.83
2023-02-22T06:41:43.928Z,5.37
2023-02-22T06:44:11.047Z,5.43
2023-02-22T06:46:38.643Z,5.30
2023-02-22T06:49:05.911Z,5.77
2023-02-22T06:51:37.618Z,5.60
2023-02-22T06:54:04.587Z,5.10
2023-02-22T06:56:31.235Z,4.80
2023-02-22T06:58:57.944Z,4.50
2023-02-22T07:01:24.573Z,4.67
2023-02-22T07:03:51.306Z,5.33
2023-02-22T07:06:18.043Z,5.10
2023-02-22T07:08:44.746Z,4.90
2023-02-22T07:11:11.527Z,4.13
2023-02-22T07:13:38.292Z,4.97
2023-02-22T07:16:05.314Z,4.73
2023-02-22T07:18:32.014Z,4.73
2023-02-22T07:20:58.748Z,4.83
2023-02-22T07:23:25.503Z,4.87
2023-02-22T07:25:52.167Z,5.03
2023-02-22T07:28:19.055Z,4.00
2023-02-22T07:30:45.891Z,5.80
2023-02-22T07:33:13.405Z,4.80
2023-02-22T07:35:46.523Z,4.70
2023-02-22T07:38:15.328Z,5.23
2023-02-22T07:40:42.828Z,4.63
2023-02-22T07:43:17.326Z,4.30
2023-02-22T07:45:44.146Z,4.77
2023-02-22T07:48:12.900Z,5.10
2023-02-22T07:50:40.597Z,4.87
2023-02-22T07:53:12.291Z,4.43
2023-02-22T07:55:39.143Z,5.17
2023-02-22T07:58:07.959Z,4.73
2023-02-22T08:00:35.947Z,4.00
2023-02-22T08:03:05.389Z,4.97
2023-02-22T08:05:33.799Z,5.60
2023-02-22T08:08:00.995Z,4.93
2023-02-22T08:10:28.543Z,4.80
2023-02-22T08:12:56.067Z,4.67
2023-02-22T08:15:24.955Z,5.70
2023-02-22T08:17:53.377Z,5.47
2023-02-22T08:20:20.845Z,5.00
2023-02-22T08:22:48.434Z,5.33
2023-02-22T08:25:16.622Z,4.67
2023-02-22T08:27:44.136Z,5.97
2023-02-22T08:30:30.879Z,6.57
2023-02-22T08:32:58.990Z,5.73
2023-02-22T08:35:27.581Z,5.63
2023-02-22T08:37:58.568Z,6.00
2023-02-22T08:40:27.865Z,6.37
2023-02-22T08:42:55.043Z,5.60
2023-02-22T08:45:21.763Z,5.73
2023-02-22T08:47:49.266Z,5.80
2023-02-22T08:50:27.831Z,5.30
2023-02-22T08:52:58.645Z,6.00
2023-02-22T08:55:27.476Z,5.83
2023-02-22T08:57:54.137Z,6.20
2023-02-22T09:00:25.375Z,6.47
2023-02-22T09:02:53.004Z,5.63
2023-02-22T09:05:19.917Z,6.20
2023-02-22T09:07:46.700Z,6.20
2023-02-22T09:10:16.607Z,6.37
2023-02-22T09:12:43.304Z,5.30
2023-02-22T09:15:11.279Z,6.40
2023-02-22T09:17:38.025Z,6.50
2023-02-22T09:20:06.446Z,6.17
2023-02-22T09:22:33.424Z,6.30
2023-02-22T09:25:11.432Z,5.27
2023-02-22T09:27:43.668Z,5.83
2023-02-22T09:30:26.980Z,5.67
2023-02-22T09:32:57.695Z,6.23
2023-02-22T09:35:27.277Z,5.50
2023-02-22T09:38:00.127Z,5.60
2023-02-22T09:40:30.182Z,5.57
2023-02-22T09:43:07.277Z,5.70
2023-02-22T09:45:48.277Z,5.20
2023-02-22T09:48:22.199Z,5.60
2023-02-22T09:50:52.836Z,5.07
2023-02-22T09:53:31.488Z,5.07
2023-02-22T09:56:10.514Z,6.83
2023-02-22T09:58:46.535Z,5.13
2023-02-22T10:01:27.027Z,6.13
2023-02-22T10:04:30.459Z,4.90
2023-02-22T10:07:10.405Z,5.83
2023-02-22T10:09:44.831Z,5.37
2023-02-22T10:12:30.208Z,5.27
2023-02-22T10:14:59.890Z,5.57
2023-02-22T10:17:54.252Z,5.60
2023-02-22T10:20:54.026Z,5.63
2023-02-22T10:23:32.762Z,5.27
2023-02-22T10:26:12.348Z,5.43
2023-02-22T10:28:43.903Z,5.30
2023-02-22T10:31:36.328Z,5.70
2023-02-22T10:34:07.678Z,5.80
2023-02-22T10:36:39.130Z,6.27
2023-02-22T10:39:14.788Z,5.63
2023-02-22T10:41:49.359Z,5.90
2023-02-22T10:44:16.966Z,6.27
2023-02-22T10:46:46.019Z,6.13
2023-02-22T10:49:23.970Z,6.07
2023-02-22T10:52:02.276Z,6.13
2023-02-22T10:54:34.499Z,6.23
2023-02-22T10:57:01.282Z,6.03
2023-02-22T10:59:35.030Z,6.73
2023-02-22T11:02:17.915Z,6.37
2023-02-22T11:04:51.170Z,6.43
2023-02-22T11:07:30.480Z,6.20
2023-02-22T11:10:09.466Z,6.83
2023-02-22T11:12:48.519Z,6.63
2023-02-22T11:15:22.329Z,6.10
2023-02-22T11:17:51.867Z,6.63
2023-02-22T11:20:27.978Z,6.50
2023-02-22T11:23:01.152Z,6.73
2023-02-22T11:25:33.393Z,6.80
2023-02-22T11:28:31.006Z,7.20
2023-02-22T11:31:09.093Z,6.20
2023-02-22T11:33:37.944Z,6.37
2023-02-22T11:36:08.865Z,7.17
2023-02-22T11:38:38.118Z,6.63
2023-02-22T11:41:18.878Z,6.80
2023-02-22T11:43:48.322Z,6.70
2023-02-22T11:46:20.676Z,5.97
2023-02-22T11:49:06.632Z,6.03
2023-02-22T11:52:01.157Z,6.17
2023-02-22T11:54:58.341Z,6.67
2023-02-22T11:57:37.616Z,6.73
2023-02-22T12:00:16.294Z,6.97
2023-02-22T12:03:05.124Z,7.83
2023-02-22T12:06:00.560Z,6.80
2023-02-22T12:08:36.241Z,7.17
2023-02-22T12:11:18.194Z,5.67
2023-02-22T12:13:54.106Z,7.17
2023-02-22T12:16:23.765Z,6.57
2023-02-22T12:19:08.214Z,6.77
2023-02-22T12:21:40.455Z,7.27
2023-02-22T12:24:16.361Z,6.40
2023-02-22T12:26:55.240Z,7.37
2023-02-22T12:29:37.757Z,6.63
2023-02-22T12:32:06.399Z,6.57
2023-02-22T12:34:41.756Z,6.20
2023-02-22T12:37:22.597Z,7.20
2023-02-22T12:40:24.282Z,6.83
2023-02-22T12:43:05.377Z,6.50
2023-02-22T12:45:35.012Z,6.47
2023-02-22T12:48:19.900Z,7.13
2023-02-22T12:50:51.050Z,7.17
2023-02-22T12:53:37.038Z,6.83
2023-02-22T12:56:25.900Z,7.13
2023-02-22T12:59:03.323Z,6.97
2023-02-22T13:01:37.666Z,7.50
2023-02-22T13:04:19.515Z,6.97
2023-02-22T13:07:07.629Z,7.23
2023-02-22T13:09:59.467Z,7.63
2023-02-22T13:13:03.967Z,7.47
2023-02-22T13:15:44.732Z,7.60
2023-02-22T13:18:43.013Z,7.47
2023-02-22T13:21:31.786Z,7.33
2023-02-22T13:24:12.548Z,7.50
2023-02-22T13:27:01.701Z,7.17
2023-02-22T13:29:35.096Z,7.53
2023-02-22T13:32:22.821Z,7.20
2023-02-22T13:35:21.868Z,6.27
2023-02-22T13:37:51.513Z,6.87
2023-02-22T13:40:21.122Z,6.63
2023-02-22T13:43:17.243Z,6.60
2023-02-22T13:46:19.717Z,6.53
2023-02-22T13:49:35.053Z,6.50
2023-02-22T13:52:12.281Z,6.60
2023-02-22T13:54:54.747Z,6.17
2023-02-22T13:57:33.424Z,6.47
2023-02-22T14:00:15.420Z,6.03
2023-02-22T14:03:03.862Z,5.43
2023-02-22T14:05:37.613Z,5.70
2023-02-22T14:08:05.624Z,5.37
2023-02-22T14:10:44.500Z,5.73
2023-02-22T14:13:11.777Z,5.53
2023-02-22T14:16:00.435Z,5.63
2023-02-22T14:18:35.544Z,6.50
2023-02-22T14:21:19.328Z,6.33
2023-02-22T14:23:49.496Z,5.77
2023-02-22T14:26:18.481Z,5.73
2023-02-22T14:29:09.463Z,4.83
2023-02-22T14:31:45.059Z,5.07
2023-02-22T14:34:19.146Z,5.50
2023-02-22T14:36:54.606Z,4.63
2023-02-22T14:39:39.427Z,5.67
2023-02-22T14:42:12.906Z,5.17
2023-02-22T14:44:55.094Z,4.60
2023-02-22T14:47:29.436Z,5.07
2023-02-22T14:50:12.922Z,5.23
2023-02-22T14:52:40.763Z,5.20
2023-02-22T14:55:13.788Z,4.83
2023-02-22T14:57:45.698Z,4.90
2023-02-22T15:00:20.232Z,5.17
2023-02-22T15:02:57.338Z,5.40
2023-02-22T15:05:24.196Z,5.57
2023-02-22T15:08:09.924Z,5.30
2023-02-22T15:10:48.422Z,5.00
2023-02-22T15:13:19.297Z,5.20
2023-02-22T15:15:55.491Z,5.90
2023-02-22T15:18:37.677Z,5.37
2023-02-22T15:21:13.227Z,5.57
2023-02-22T15:24:00.367Z,5.40
2023-02-22T15:26:52.053Z,5.10
2023-02-22T15:29:35.081Z,5.97
2023-02-22T15:32:01.825Z,5.63
2023-02-22T15:34:31.635Z,6.33
2023-02-22T15:37:18.762Z,5.73
2023-02-22T15:39:45.526Z,6.63
2023-02-22T15:42:21.015Z,5.73
2023-02-22T15:44:54.732Z,6.47
2023-02-22T15:47:27.547Z,6.07
2023-02-22T15:50:15.970Z,5.47
2023-02-22T15:53:03.220Z,6.30
2023-02-22T15:55:42.201Z,6.10
2023-02-22T15:58:23.708Z,5.70
2023-02-22T16:01:14.109Z,5.80
2023-02-22T16:03:46.382Z,4.80
2023-02-22T16:06:28.600Z,5.83
2023-02-22T16:08:57.367Z,4.97
2023-02-22T16:11:43.114Z,5.10
2023-02-22T16:14:26.931Z,5.10
2023-02-22T16:17:25.778Z,5.50
2023-02-22T16:19:53.225Z,5.23
2023-02-22T16:22:33.714Z,5.13
2023-02-22T16:25:18.495Z,4.83
2023-02-22T16:27:51.006Z,5.10
2023-02-22T16:30:27.470Z,4.37
2023-02-22T16:32:56.577Z,4.83
2023-02-22T16:35:28.714Z,4.87
2023-02-22T16:37:58.824Z,5.13
2023-02-22T16:40:34.491Z,4.30
2023-02-22T16:43:03.889Z,5.13
2023-02-22T16:45:30.606Z,5.37
2023-02-22T16:48:04.844Z,4.77
2023-02-22T16:50:31.526Z,5.00
2023-02-22T16:53:00.610Z,4.80
2023-02-22T16:55:27.357Z,6.27
2023-02-22T16:58:01.055Z,5.93
2023-02-22T17:00:36.672Z,4.77
2023-02-22T17:03:04.675Z,5.23
2023-02-22T17:05:32.222Z,4.67
2023-02-22T17:07:58.880Z,4.97
2023-02-22T17:10:26.157Z,5.03
2023-02-22T17:12:53.496Z,4.93
2023-02-22T17:15:29.116Z,4.93
2023-02-22T17:17:57.350Z,4.80
2023-02-22T17:20:30.104Z,5.50
2023-02-22T17:23:01.978Z,5.00
2023-02-22T17:25:34.647Z,4.77
2023-02-22T17:28:01.333Z,4.73
2023-02-22T17:30:28.185Z,5.27
2023-02-22T17:33:03.433Z,4.80
2023-02-22T17:35:35.085Z,5.57
2023-02-22T17:38:06.222Z,5.50
2023-02-22T17:40:37.533Z,5.07
2023-02-22T17:43:08.033Z,4.80
2023-02-22T17:45:38.114Z,4.90
2023-02-22T17:48:05.551Z,4.63
2023-02-22T17:50:32.335Z,5.23
2023-02-22T17:53:03.243Z,4.50
2023-02-22T17:55:30.586Z,4.30
2023-02-22T17:57:58.363Z,4.50
2023-02-22T18:00:33.870Z,3.80
2023-02-22T18:03:04.519Z,4.07
2023-02-22T18:05:33.145Z,4.30
2023-02-22T18:08:00.252Z,4.30
2023-02-22T18:10:27.169Z,4.93
2023-02-22T18:12:53.949Z,5.03
2023-02-22T18:15:28.272Z,4.27
2023-02-22T18:17:56.016Z,4.43
2023-02-22T18:20:31.129Z,4.10
2023-02-22T18:22:59.207Z,4.20
2023-02-22T18:25:27.052Z,4.57
2023-02-22T18:27:55.007Z,4.13
2023-02-22T18:30:21.780Z,4.63
2023-02-22T18:32:48.490Z,4.80
2023-02-22T18:35:15.208Z,5.50
2023-02-22T18:37:41.864Z,4.47
2023-02-22T18:40:10.648Z,4.30
2023-02-22T18:42:38.908Z,4.87
2023-02-22T18:45:06.772Z,3.97
2023-02-22T18:47:39.917Z,4.13
2023-02-22T18:50:07.321Z,4.10
2023-02-22T18:52:44.768Z,4.40
2023-02-22T18:55:17.628Z,4.37
2023-02-22T18:57:45.665Z,4.30
2023-02-22T19:00:15.744Z,4.23
2023-02-22T19:02:46.008Z,4.67
2023-02-22T19:05:14.120Z,3.80
2023-02-22T19:07:40.790Z,4.67
2023-02-22T19:10:07.886Z,4.17
2023-02-22T19:12:34.874Z,4.80
2023-02-22T19:15:01.711Z,4.50
2023-02-22T19:17:31.086Z,4.33
2023-02-22T19:19:57.865Z,4.70
2023-02-22T19:22:26.275Z,4.47
2023-02-22T19:24:56.287Z,5.10
2023-02-22T19:27:23.521Z,4.47
2023-02-22T19:29:50.539Z,4.50
2023-02-22T19:32:17.580Z,4.50
2023-02-22T19:34:44.705Z,5.30
2023-02-22T19:37:13.174Z,5.67
2023-02-22T19:39:47.641Z,5.63
2023-02-22T19:42:14.416Z,5.40
2023-02-22T19:44:41.204Z,6.30
2023-02-22T19:47:10.132Z,6.10
2023-02-22T19:49:37.847Z,7.00
2023-02-22T19:52:06.587Z,6.23
2023-02-22T19:54:33.742Z,5.90
2023-02-22T19:57:01.161Z,5.27
2023-02-22T19:59:29.069Z,5.27
2023-02-22T20:01:56.660Z,5.67
2023-02-22T20:04:24.304Z,5.40
2023-02-22T20:06:57.555Z,6.37
2023-02-22T20:09:30.258Z,6.20
2023-02-22T20:11:57.262Z,6.50
2023-02-22T20:14:28.391Z,6.73
2023-02-22T20:16:55.940Z,5.87
2023-02-22T20:19:22.683Z,6.27
2023-02-22T20:21:52.287Z,6.40
2023-02-22T20:24:19.274Z,7.57
2023-02-22T20:26:47.185Z,6.53
2023-02-22T20:29:15.096Z,7.63
2023-02-22T20:31:43.068Z,6.57
2023-02-22T20:34:11.419Z,6.40
2023-02-22T20:36:41.436Z,7.17
2023-02-22T20:39:13.678Z,6.70
2023-02-22T20:41:42.163Z,7.00
2023-02-22T20:44:12.205Z,6.40
2023-02-22T20:46:39.841Z,6.47
2023-02-22T20:49:08.824Z,6.00
2023-02-22T20:51:36.823Z,6.30
2023-02-22T20:54:03.667Z,6.33
2023-02-22T20:56:32.326Z,6.77
2023-02-22T20:59:01.845Z,6.07
2023-02-22T21:01:28.989Z,6.73
2023-02-22T21:04:00.537Z,6.50
2023-02-22T21:06:28.686Z,6.63
2023-02-22T21:08:57.938Z,7.50
2023-02-22T21:11:32.127Z,7.27
2023-02-22T21:14:00.222Z,6.93
2023-02-22T21:16:30.126Z,6.47
2023-02-22T21:19:00.716Z,7.93
2023-02-22T21:21:29.026Z,7.43
2023-02-22T21:23:57.926Z,6.70
2023-02-22T21:26:29.627Z,6.60
2023-02-22T21:29:00.704Z,6.43
2023-02-22T21:31:28.313Z,6.87
2023-02-22T21:33:57.546Z,8.50
2023-02-22T21:36:27.529Z,9.37
2023-02-22T21:39:00.063Z,7.73
2023-02-22T21:41:31.196Z,7.50
2023-02-22T21:43:59.259Z,7.50
2023-02-22T21:46:27.738Z,7.93
2023-02-22T21:48:58.522Z,7.60
2023-02-22T21:51:31.506Z,7.80
2023-02-22T21:54:06.219Z,7.83
2023-02-22T21:56:36.567Z,8.17
2023-02-22T21:59:11.691Z,7.80
2023-02-22T22:01:47.536Z,7.27
2023-02-22T22:04:27.497Z,7.20
2023-02-22T22:06:56.822Z,8.27
2023-02-22T22:09:24.548Z,7.23
2023-02-22T22:12:03.409Z,7.67
2023-02-22T22:14:34.385Z,7.27
2023-02-22T22:17:01.486Z,7.33
2023-02-22T22:19:30.693Z,8.33
2023-02-22T22:21:58.315Z,7.10
2023-02-22T22:24:28.703Z,7.50
2023-02-22T22:26:56.195Z,7.83
2023-02-22T22:29:24.895Z,8.10
2023-02-22T22:31:52.340Z,8.43
2023-02-22T22:34:19.585Z,7.77
2023-02-22T22:36:46.837Z,7.87
2023-02-22T22:39:13.549Z,8.27
2023-02-22T22:41:47.021Z,8.13
2023-02-22T22:44:16.119Z,8.40
2023-02-22T22:46:49.016Z,8.40
2023-02-22T22:49:16.732Z,9.00
2023-02-22T22:51:47.338Z,8.80
2023-02-22T22:54:14.263Z,9.27
2023-02-22T22:56:41.035Z,9.07
2023-02-22T22:59:09.716Z,10.13
2023-02-22T23:01:44.418Z,9.33
2023-02-22T23:04:16.650Z,9.27
2023-02-22T23:06:50.897Z,8.37
2023-02-22T23:09:23.977Z,8.87
2023-02-22T23:11:53.561Z,9.50
2023-02-22T23:14:32.364Z,10.63
2023-02-22T23:17:03.627Z,9.47
2023-02-22T23:19:35.631Z,9.77
2023-02-22T23:22:05.352Z,9.60
2023-02-22T23:24:36.220Z,9.50
2023-02-22T23:27:07.211Z,9.90
2023-02-22T23:29:37.765Z,10.30
2023-02-22T23:32:08.711Z,10.37
2023-02-22T23:34:36.753Z,9.70
2023-02-22T23:37:03.582Z,9.73
2023-02-22T23:39:30.284Z,9.33
2023-02-22T23:42:01.292Z,9.90
2023-02-22T23:44:28.818Z,9.23
2023-02-22T23:46:56.006Z,8.97
2023-02-22T23:49:35.532Z,10.13
2023-02-22T23:52:03.085Z,10.07
2023-02-22T23:54:36.152Z,10.30
2023-02-22T23:57:04.431Z,9.93
2023-02-22T23:59:31.929Z,10.30
